sensor_id;sensor_type;location;lat;lon;timestamp;pressure;altitude;pressure_sealevel;temperature;humidity
74921;BME280;63483;47.384;8.860;2023-05-16T00:02:24;94266.69;;;9.84;49.23
74921;BME280;63483;47.384;8.860;2023-05-16T00:04:49;94269.13;;;9.86;49.04
74921;BME280;63483;47.384;8.860;2023-05-16T00:07:14;94278.44;;;9.89;49.14
74921;BME280;63483;47.384;8.860;2023-05-16T00:09:40;94271.59;;;9.88;48.91
74921;BME280;63483;47.384;8.860;2023-05-16T00:12:06;94265.56;;;9.87;48.90
74921;BME280;63483;47.384;8.860;2023-05-16T00:14:31;94264.09;;;9.84;49.10
74921;BME280;63483;47.384;8.860;2023-05-16T00:16:57;94261.03;;;9.81;49.07
74921;BME280;63483;47.384;8.860;2023-05-16T00:19:23;94259.88;;;9.83;49.25
74921;BME280;63483;47.384;8.860;2023-05-16T00:21:48;94258.66;;;9.86;49.25
74921;BME280;63483;47.384;8.860;2023-05-16T00:24:14;94258.97;;;9.91;48.80
74921;BME280;63483;47.384;8.860;2023-05-16T00:26:39;94260.22;;;9.95;48.80
74921;BME280;63483;47.384;8.860;2023-05-16T00:29:05;94260.41;;;9.94;48.83
74921;BME280;63483;47.384;8.860;2023-05-16T00:31:31;94256.97;;;9.93;49.26
74921;BME280;63483;47.384;8.860;2023-05-16T00:33:56;94252.75;;;9.92;49.08
74921;BME280;63483;47.384;8.860;2023-05-16T00:36:22;94257.97;;;9.92;49.02
74921;BME280;63483;47.384;8.860;2023-05-16T00:38:47;94256.97;;;9.93;49.01
74921;BME280;63483;47.384;8.860;2023-05-16T00:41:13;94256.72;;;9.88;49.40
74921;BME280;63483;47.384;8.860;2023-05-16T00:43:38;94248.88;;;9.88;49.41
74921;BME280;63483;47.384;8.860;2023-05-16T00:46:04;94248.19;;;9.86;49.67
74921;BME280;63483;47.384;8.860;2023-05-16T00:48:30;94248.94;;;9.80;49.65
74921;BME280;63483;47.384;8.860;2023-05-16T00:50:55;94244.47;;;9.74;49.67
74921;BME280;63483;47.384;8.860;2023-05-16T00:53:22;94250.94;;;9.78;49.63
74921;BME280;63483;47.384;8.860;2023-05-16T00:55:48;94251.94;;;9.77;49.66
74921;BME280;63483;47.384;8.860;2023-05-16T00:58:13;94248.53;;;9.76;49.63
74921;BME280;63483;47.384;8.860;2023-05-16T01:00:39;94240.91;;;9.81;49.61
74921;BME280;63483;47.384;8.860;2023-05-16T01:03:05;94239.75;;;9.84;49.46
74921;BME280;63483;47.384;8.860;2023-05-16T01:05:31;94237.75;;;9.86;49.61
74921;BME280;63483;47.384;8.860;2023-05-16T01:07:56;94234.16;;;9.87;49.59
74921;BME280;63483;47.384;8.860;2023-05-16T01:10:22;94239.03;;;9.90;49.45
74921;BME280;63483;47.384;8.860;2023-05-16T01:16:25;94232.19;;;9.89;49.71
74921;BME280;63483;47.384;8.860;2023-05-16T01:18:57;94226.13;;;9.89;49.81
74921;BME280;63483;47.384;8.860;2023-05-16T01:25:04;94225.69;;;9.85;50.39
74921;BME280;63483;47.384;8.860;2023-05-16T01:27:30;94230.91;;;9.85;50.23
74921;BME280;63483;47.384;8.860;2023-05-16T01:29:56;94229.09;;;9.85;50.30
74921;BME280;63483;47.384;8.860;2023-05-16T01:32:21;94230.91;;;9.85;50.40
74921;BME280;63483;47.384;8.860;2023-05-16T01:34:49;94235.13;;;9.86;50.65
74921;BME280;63483;47.384;8.860;2023-05-16T01:37:23;94241.38;;;9.85;50.60
74921;BME280;63483;47.384;8.860;2023-05-16T01:40:01;94233.72;;;9.83;50.76
74921;BME280;63483;47.384;8.860;2023-05-16T01:42:32;94234.50;;;9.84;50.73
74921;BME280;63483;47.384;8.860;2023-05-16T01:45:23;94234.50;;;9.84;50.81
74921;BME280;63483;47.384;8.860;2023-05-16T01:48:07;94238.13;;;9.83;50.75
74921;BME280;63483;47.384;8.860;2023-05-16T01:50:38;94233.91;;;9.82;50.64
74921;BME280;63483;47.384;8.860;2023-05-16T01:53:07;94234.28;;;9.79;50.63
74921;BME280;63483;47.384;8.860;2023-05-16T01:58:03;94241.38;;;9.85;51.36
74921;BME280;63483;47.384;8.860;2023-05-16T02:00:29;94230.91;;;9.85;51.26
74921;BME280;63483;47.384;8.860;2023-05-16T02:02:55;94231.09;;;9.83;51.58
74921;BME280;63483;47.384;8.860;2023-05-16T02:05:21;94227.66;;;9.83;51.47
74921;BME280;63483;47.384;8.860;2023-05-16T02:07:46;94229.28;;;9.84;51.38
74921;BME280;63483;47.384;8.860;2023-05-16T02:10:12;94226.66;;;9.84;51.19
74921;BME280;63483;47.384;8.860;2023-05-16T02:12:38;94227.84;;;9.81;51.15
74921;BME280;63483;47.384;8.860;2023-05-16T02:15:04;94222.97;;;9.78;51.51
74921;BME280;63483;47.384;8.860;2023-05-16T02:17:29;94224.41;;;9.81;51.45
74921;BME280;63483;47.384;8.860;2023-05-16T02:19:55;94222.41;;;9.83;51.36
74921;BME280;63483;47.384;8.860;2023-05-16T02:22:20;94231.28;;;9.82;51.29
74921;BME280;63483;47.384;8.860;2023-05-16T02:24:45;94230.63;;;9.80;51.68
74921;BME280;63483;47.384;8.860;2023-05-16T02:27:11;94225.41;;;9.80;51.68
74921;BME280;63483;47.384;8.860;2023-05-16T02:29:36;94233.91;;;9.82;51.90
74921;BME280;63483;47.384;8.860;2023-05-16T02:32:01;94225.69;;;9.85;51.71
74921;BME280;63483;47.384;8.860;2023-05-16T02:34:27;94222.03;;;9.86;51.44
74921;BME280;63483;47.384;8.860;2023-05-16T02:36:52;94223.25;;;9.83;51.69
74921;BME280;63483;47.384;8.860;2023-05-16T02:39:17;94223.63;;;9.80;51.62
74921;BME280;63483;47.384;8.860;2023-05-16T02:41:43;94213.16;;;9.80;51.87
74921;BME280;63483;47.384;8.860;2023-05-16T02:44:08;94210.34;;;9.82;52.09
74921;BME280;63483;47.384;8.860;2023-05-16T02:46:34;94222.88;;;9.86;51.68
74921;BME280;63483;47.384;8.860;2023-05-16T02:49:00;94208.00;;;9.87;51.80
74921;BME280;63483;47.384;8.860;2023-05-16T02:51:27;94198.34;;;9.88;51.70
74921;BME280;63483;47.384;8.860;2023-05-16T02:53:52;94204.41;;;9.88;51.49
74921;BME280;63483;47.384;8.860;2023-05-16T02:56:18;94207.19;;;9.86;52.07
74921;BME280;63483;47.384;8.860;2023-05-16T02:58:46;94201.94;;;9.86;51.62
74921;BME280;63483;47.384;8.860;2023-05-16T03:01:12;94199.19;;;9.88;51.63
74921;BME280;63483;47.384;8.860;2023-05-16T03:03:38;94201.59;;;9.90;51.82
74921;BME280;63483;47.384;8.860;2023-05-16T03:06:03;94192.31;;;9.87;51.62
74921;BME280;63483;47.384;8.860;2023-05-16T03:08:29;94200.81;;;9.89;51.85
74921;BME280;63483;47.384;8.860;2023-05-16T03:10:54;94198.34;;;9.88;51.74
74921;BME280;63483;47.384;8.860;2023-05-16T03:13:20;94194.94;;;9.87;51.85
74921;BME280;63483;47.384;8.860;2023-05-16T03:15:47;94196.72;;;9.86;51.56
74921;BME280;63483;47.384;8.860;2023-05-16T03:18:12;94198.50;;;9.86;51.86
74921;BME280;63483;47.384;8.860;2023-05-16T03:20:37;94195.09;;;9.85;51.77
74921;BME280;63483;47.384;8.860;2023-05-16T03:23:03;94194.28;;;9.85;51.79
74921;BME280;63483;47.384;8.860;2023-05-16T03:25:32;94189.06;;;9.85;52.03
74921;BME280;63483;47.384;8.860;2023-05-16T03:27:57;94186.25;;;9.86;51.90
74921;BME280;63483;47.384;8.860;2023-05-16T03:30:23;94187.09;;;9.87;51.81
74921;BME280;63483;47.384;8.860;2023-05-16T03:32:48;94189.69;;;9.87;51.96
74921;BME280;63483;47.384;8.860;2023-05-16T03:35:14;94184.63;;;9.85;52.02
74921;BME280;63483;47.384;8.860;2023-05-16T03:37:39;94174.34;;;9.84;52.01
74921;BME280;63483;47.384;8.860;2023-05-16T03:40:05;94178.97;;;9.82;52.08
74921;BME280;63483;47.384;8.860;2023-05-16T03:42:31;94176.53;;;9.80;52.13
74921;BME280;63483;47.384;8.860;2023-05-16T03:44:57;94178.97;;;9.82;51.92
74921;BME280;63483;47.384;8.860;2023-05-16T03:47:22;94178.13;;;9.81;52.03
74921;BME280;63483;47.384;8.860;2023-05-16T03:49:47;94175.72;;;9.80;52.03
74921;BME280;63483;47.384;8.860;2023-05-16T03:52:13;94183.38;;;9.81;51.99
74921;BME280;63483;47.384;8.860;2023-05-16T03:54:38;94178.97;;;9.82;51.99
74921;BME280;63483;47.384;8.860;2023-05-16T03:57:04;94191.03;;;9.83;51.84
74921;BME280;63483;47.384;8.860;2023-05-16T03:59:29;94181.41;;;9.83;52.04
74921;BME280;63483;47.384;8.860;2023-05-16T04:01:55;94195.28;;;9.84;52.10
74921;BME280;63483;47.384;8.860;2023-05-16T04:04:20;94186.63;;;9.83;52.16
74921;BME280;63483;47.384;8.860;2023-05-16T04:06:45;94190.84;;;9.84;52.25
74921;BME280;63483;47.384;8.860;2023-05-16T04:09:11;94190.84;;;9.84;52.45
74921;BME280;63483;47.384;8.860;2023-05-16T04:11:36;94188.22;;;9.84;52.35
74921;BME280;63483;47.384;8.860;2023-05-16T04:14:02;94192.31;;;9.87;52.11
74921;BME280;63483;47.384;8.860;2023-05-16T04:16:28;94192.31;;;9.87;52.23
74921;BME280;63483;47.384;8.860;2023-05-16T04:18:54;94185.13;;;9.89;52.06
74921;BME280;63483;47.384;8.860;2023-05-16T04:21:20;94190.34;;;9.89;52.11
74921;BME280;63483;47.384;8.860;2023-05-16T04:23:46;94196.38;;;9.90;52.09
74921;BME280;63483;47.384;8.860;2023-05-16T04:26:11;94191.94;;;9.90;52.11
74921;BME280;63483;47.384;8.860;2023-05-16T04:28:38;94200.44;;;9.92;52.08
74921;BME280;63483;47.384;8.860;2023-05-16T04:31:04;94198.44;;;9.94;52.04
74921;BME280;63483;47.384;8.860;2023-05-16T04:33:29;94196.00;;;9.93;51.95
74921;BME280;63483;47.384;8.860;2023-05-16T04:35:55;94196.97;;;9.92;52.09
74921;BME280;63483;47.384;8.860;2023-05-16T04:38:22;94199.97;;;9.89;52.19
74921;BME280;63483;47.384;8.860;2023-05-16T04:40:47;94195.09;;;9.85;52.14
74921;BME280;63483;47.384;8.860;2023-05-16T04:43:14;94202.94;;;9.85;52.07
74921;BME280;63483;47.384;8.860;2023-05-16T04:45:40;94202.59;;;9.89;51.96
74921;BME280;63483;47.384;8.860;2023-05-16T04:48:07;94191.94;;;9.90;52.01
74921;BME280;63483;47.384;8.860;2023-05-16T04:50:32;94200.44;;;9.92;52.02
74921;BME280;63483;47.384;8.860;2023-05-16T04:52:58;94199.03;;;9.96;51.95
74921;BME280;63483;47.384;8.860;2023-05-16T04:55:23;94203.28;;;9.97;51.77
74921;BME280;63483;47.384;8.860;2023-05-16T04:57:49;94206.69;;;9.98;51.92
74921;BME280;63483;47.384;8.860;2023-05-16T05:00:15;94197.06;;;9.98;52.08
74921;BME280;63483;47.384;8.860;2023-05-16T05:02:40;94204.09;;;9.98;52.15
74921;BME280;63483;47.384;8.860;2023-05-16T05:05:06;94202.28;;;9.98;51.84
74921;BME280;63483;47.384;8.860;2023-05-16T05:07:32;94204.91;;;9.98;51.95
74921;BME280;63483;47.384;8.860;2023-05-16T05:09:58;94205.91;;;9.97;51.78
74921;BME280;63483;47.384;8.860;2023-05-16T05:12:23;94203.28;;;9.97;51.80
74921;BME280;63483;47.384;8.860;2023-05-16T05:14:49;94205.28;;;9.95;51.89
74921;BME280;63483;47.384;8.860;2023-05-16T05:17:16;94205.66;;;9.92;52.02
74921;BME280;63483;47.384;8.860;2023-05-16T05:19:41;94213.31;;;9.94;51.94
74921;BME280;63483;47.384;8.860;2023-05-16T05:22:06;94212.06;;;9.90;52.05
74921;BME280;63483;47.384;8.860;2023-05-16T05:24:32;94214.50;;;9.91;52.18
74921;BME280;63483;47.384;8.860;2023-05-16T05:26:57;94204.47;;;9.95;52.21
74921;BME280;63483;47.384;8.860;2023-05-16T05:29:22;94208.28;;;9.92;52.30
74921;BME280;63483;47.384;8.860;2023-05-16T05:31:48;94215.47;;;9.90;52.64
74921;BME280;63483;47.384;8.860;2023-05-16T05:34:13;94202.50;;;9.82;52.77
74921;BME280;63483;47.384;8.860;2023-05-16T05:36:38;94212.69;;;9.77;52.54
74921;BME280;63483;47.384;8.860;2023-05-16T05:39:04;94212.47;;;9.72;52.94
74921;BME280;63483;47.384;8.860;2023-05-16T05:41:29;94210.84;;;9.71;52.88
74921;BME280;63483;47.384;8.860;2023-05-16T05:43:55;94203.97;;;9.48;53.50
74921;BME280;63483;47.384;8.860;2023-05-16T05:46:20;94206.47;;;9.41;53.66
74921;BME280;63483;47.384;8.860;2023-05-16T05:48:46;94211.16;;;9.46;53.90
74921;BME280;63483;47.384;8.860;2023-05-16T05:51:11;94212.16;;;9.45;53.94
74921;BME280;63483;47.384;8.860;2023-05-16T05:53:39;94208.00;;;9.36;54.12
74921;BME280;63483;47.384;8.860;2023-05-16T05:56:05;94207.91;;;9.44;53.75
74921;BME280;63483;47.384;8.860;2023-05-16T05:58:30;94204.06;;;9.40;54.52
74921;BME280;63483;47.384;8.860;2023-05-16T06:00:56;94214.63;;;9.31;51.72
74921;BME280;63483;47.384;8.860;2023-05-16T06:03:21;94210.41;;;8.86;47.28
74921;BME280;63483;47.384;8.860;2023-05-16T06:05:46;94211.28;;;8.78;50.01
74921;BME280;63483;47.384;8.860;2023-05-16T06:08:12;94198.88;;;8.42;48.43
74921;BME280;63483;47.384;8.860;2023-05-16T06:10:37;94209.09;;;8.67;52.49
74921;BME280;63483;47.384;8.860;2023-05-16T06:13:02;94220.69;;;8.49;51.54
74921;BME280;63483;47.384;8.860;2023-05-16T06:15:28;94210.75;;;8.30;52.04
74921;BME280;63483;47.384;8.860;2023-05-16T06:17:53;94213.09;;;8.54;55.10
74921;BME280;63483;47.384;8.860;2023-05-16T06:20:18;94219.31;;;8.15;55.58
74921;BME280;63483;47.384;8.860;2023-05-16T06:22:44;94219.31;;;8.15;50.86
74921;BME280;63483;47.384;8.860;2023-05-16T06:25:09;94217.06;;;8.12;51.38
74921;BME280;63483;47.384;8.860;2023-05-16T06:27:34;94226.63;;;7.97;50.03
74921;BME280;63483;47.384;8.860;2023-05-16T06:30:00;94234.56;;;7.80;53.81
74921;BME280;63483;47.384;8.860;2023-05-16T06:32:25;94238.78;;;7.81;50.04
74921;BME280;63483;47.384;8.860;2023-05-16T06:34:50;94234.28;;;7.75;54.64
74921;BME280;63483;47.384;8.860;2023-05-16T06:37:16;94219.69;;;8.12;54.23
74921;BME280;63483;47.384;8.860;2023-05-16T06:39:41;94221.72;;;8.02;52.95
74921;BME280;63483;47.384;8.860;2023-05-16T06:42:06;94221.19;;;8.06;48.26
74921;BME280;63483;47.384;8.860;2023-05-16T06:44:32;94226.88;;;7.87;50.81
74921;BME280;63483;47.384;8.860;2023-05-16T06:46:57;94223.28;;;7.88;52.81
74921;BME280;63483;47.384;8.860;2023-05-16T06:49:22;94226.31;;;8.00;53.85
74921;BME280;63483;47.384;8.860;2023-05-16T06:51:48;94221.88;;;8.00;52.65
74921;BME280;63483;47.384;8.860;2023-05-16T06:54:13;94231.78;;;8.05;53.64
74921;BME280;63483;47.384;8.860;2023-05-16T06:56:39;94229.28;;;8.35;54.03
74921;BME280;63483;47.384;8.860;2023-05-16T06:59:04;94229.56;;;8.40;53.37
74921;BME280;63483;47.384;8.860;2023-05-16T07:01:29;94230.13;;;8.50;53.78
74921;BME280;63483;47.384;8.860;2023-05-16T07:03:55;94230.91;;;8.36;54.41
74921;BME280;63483;47.384;8.860;2023-05-16T07:06:20;94228.88;;;8.84;53.02
74921;BME280;63483;47.384;8.860;2023-05-16T07:08:45;94233.19;;;8.54;54.29
74921;BME280;63483;47.384;8.860;2023-05-16T07:11:11;94227.22;;;8.83;53.08
74921;BME280;63483;47.384;8.860;2023-05-16T07:13:36;94226.06;;;8.86;53.00
74921;BME280;63483;47.384;8.860;2023-05-16T07:16:02;94234.00;;;9.07;52.47
74921;BME280;63483;47.384;8.860;2023-05-16T07:18:27;94234.34;;;8.89;52.85
74921;BME280;63483;47.384;8.860;2023-05-16T07:20:53;94228.59;;;8.94;53.03
74921;BME280;63483;47.384;8.860;2023-05-16T07:23:18;94230.09;;;8.88;52.66
74921;BME280;63483;47.384;8.860;2023-05-16T07:25:44;94234.88;;;8.85;52.88
74921;BME280;63483;47.384;8.860;2023-05-16T07:28:09;94227.78;;;8.93;53.01
74921;BME280;63483;47.384;8.860;2023-05-16T07:30:35;94226.44;;;8.97;52.61
74921;BME280;63483;47.384;8.860;2023-05-16T07:33:00;94229.59;;;9.08;52.58
74921;BME280;63483;47.384;8.860;2023-05-16T07:35:25;94232.38;;;9.06;52.30
74921;BME280;63483;47.384;8.860;2023-05-16T07:37:51;94239.38;;;8.91;52.82
74921;BME280;63483;47.384;8.860;2023-05-16T07:40:16;94235.50;;;9.02;52.88
74921;BME280;63483;47.384;8.860;2023-05-16T07:42:42;94239.69;;;9.11;51.92
74921;BME280;63483;47.384;8.860;2023-05-16T07:45:08;94242.38;;;9.03;52.50
74921;BME280;63483;47.384;8.860;2023-05-16T07:47:34;94243.47;;;8.93;52.65
74921;BME280;63483;47.384;8.860;2023-05-16T07:50:00;94250.13;;;9.11;51.85
74921;BME280;63483;47.384;8.860;2023-05-16T07:52:25;94247.22;;;9.06;52.47
74921;BME280;63483;47.384;8.860;2023-05-16T07:54:51;94252.75;;;9.11;52.54
74921;BME280;63483;47.384;8.860;2023-05-16T07:57:17;94252.03;;;9.17;52.24
74921;BME280;63483;47.384;8.860;2023-05-16T07:59:42;94245.53;;;9.28;52.41
74921;BME280;63483;47.384;8.860;2023-05-16T08:02:08;94238.41;;;9.37;52.05
74921;BME280;63483;47.384;8.860;2023-05-16T08:04:34;94234.50;;;9.32;52.37
74921;BME280;63483;47.384;8.860;2023-05-16T08:07:00;94250.03;;;9.19;52.26
74921;BME280;63483;47.384;8.860;2023-05-16T08:09:25;94241.81;;;9.22;52.14
74921;BME280;63483;47.384;8.860;2023-05-16T08:11:50;94242.25;;;9.56;51.67
74921;BME280;63483;47.384;8.860;2023-05-16T08:14:16;94247.75;;;9.46;51.81
74921;BME280;63483;47.384;8.860;2023-05-16T08:16:41;94243.19;;;9.69;51.51
74921;BME280;63483;47.384;8.860;2023-05-16T08:19:06;94245.34;;;9.81;50.27
74921;BME280;63483;47.384;8.860;2023-05-16T08:21:32;94249.91;;;9.57;50.59
74921;BME280;63483;47.384;8.860;2023-05-16T08:23:57;94241.97;;;9.65;50.60
74921;BME280;63483;47.384;8.860;2023-05-16T08:26:23;94248.34;;;9.78;50.46
74921;BME280;63483;47.384;8.860;2023-05-16T08:28:49;94243.09;;;9.78;50.52
74921;BME280;63483;47.384;8.860;2023-05-16T08:31:14;94248.25;;;9.71;50.38
74921;BME280;63483;47.384;8.860;2023-05-16T08:33:40;94241.94;;;9.80;49.89
74921;BME280;63483;47.384;8.860;2023-05-16T08:36:05;94246.38;;;9.65;50.33
74921;BME280;63483;47.384;8.860;2023-05-16T08:38:31;94245.50;;;9.94;50.09
74921;BME280;63483;47.384;8.860;2023-05-16T08:40:56;94244.53;;;9.95;49.86
74921;BME280;63483;47.384;8.860;2023-05-16T08:43:22;94244.97;;;9.84;50.32
74921;BME280;63483;47.384;8.860;2023-05-16T08:45:48;94239.84;;;9.91;49.66
74921;BME280;63483;47.384;8.860;2023-05-16T08:48:14;94247.75;;;9.97;49.52
74921;BME280;63483;47.384;8.860;2023-05-16T08:50:41;94233.31;;;10.23;50.45
74921;BME280;63483;47.384;8.860;2023-05-16T08:53:11;94236.03;;;9.93;48.99
74921;BME280;63483;47.384;8.860;2023-05-16T08:55:40;94236.88;;;9.79;49.78
74921;BME280;63483;47.384;8.860;2023-05-16T08:58:06;94247.34;;;9.79;51.01
74921;BME280;63483;47.384;8.860;2023-05-16T09:00:32;94244.63;;;9.87;49.86
74921;BME280;63483;47.384;8.860;2023-05-16T09:02:58;94235.78;;;10.10;48.66
74921;BME280;63483;47.384;8.860;2023-05-16T09:05:24;94240.91;;;10.18;49.70
74921;BME280;63483;47.384;8.860;2023-05-16T09:07:49;94245.91;;;10.13;49.47
74921;BME280;63483;47.384;8.860;2023-05-16T09:10:15;94239.06;;;10.12;49.17
74921;BME280;63483;47.384;8.860;2023-05-16T09:12:41;94237.81;;;10.29;48.79
74921;BME280;63483;47.384;8.860;2023-05-16T09:15:08;94242.91;;;10.37;48.70
74921;BME280;63483;47.384;8.860;2023-05-16T09:17:41;94239.53;;;10.44;48.83
74921;BME280;63483;47.384;8.860;2023-05-16T09:20:18;94236.97;;;10.29;49.08
74921;BME280;63483;47.384;8.860;2023-05-16T09:22:54;94240.03;;;10.32;49.15
74921;BME280;63483;47.384;8.860;2023-05-16T09:25:21;94235.03;;;10.37;48.91
74921;BME280;63483;47.384;8.860;2023-05-16T09:27:47;94240.44;;;10.29;48.69
74921;BME280;63483;47.384;8.860;2023-05-16T09:30:14;94240.66;;;10.34;48.87
74921;BME280;63483;47.384;8.860;2023-05-16T09:32:44;94243.13;;;10.14;49.23
74921;BME280;63483;47.384;8.860;2023-05-16T09:35:15;94236.41;;;10.33;48.46
74921;BME280;63483;47.384;8.860;2023-05-16T09:37:45;94242.66;;;10.32;49.03
74921;BME280;63483;47.384;8.860;2023-05-16T09:40:11;94241.09;;;10.38;48.33
74921;BME280;63483;47.384;8.860;2023-05-16T09:42:36;94233.78;;;10.33;48.25
74921;BME280;63483;47.384;8.860;2023-05-16T09:45:02;94246.00;;;10.48;47.78
74921;BME280;63483;47.384;8.860;2023-05-16T09:47:28;94232.56;;;10.29;47.67
74921;BME280;63483;47.384;8.860;2023-05-16T09:49:53;94233.31;;;10.23;48.45
74921;BME280;63483;47.384;8.860;2023-05-16T09:52:19;94233.38;;;10.30;48.22
74921;BME280;63483;47.384;8.860;2023-05-16T09:54:45;94230.22;;;10.13;49.33
74921;BME280;63483;47.384;8.860;2023-05-16T09:57:20;94231.81;;;10.35;48.79
74921;BME280;63483;47.384;8.860;2023-05-16T09:59:46;94242.78;;;10.46;49.15
74921;BME280;63483;47.384;8.860;2023-05-16T10:02:12;94239.53;;;10.44;48.76
74921;BME280;63483;47.384;8.860;2023-05-16T10:04:37;94235.16;;;10.51;48.81
74921;BME280;63483;47.384;8.860;2023-05-16T10:07:04;94225.13;;;10.54;48.65
74921;BME280;63483;47.384;8.860;2023-05-16T10:09:33;94221.06;;;10.52;49.03
74921;BME280;63483;47.384;8.860;2023-05-16T10:12:03;94222.34;;;10.63;48.81
74921;BME280;63483;47.384;8.860;2023-05-16T10:14:34;94229.06;;;10.44;49.13
74921;BME280;63483;47.384;8.860;2023-05-16T10:17:02;94209.06;;;10.64;48.28
74921;BME280;63483;47.384;8.860;2023-05-16T10:19:30;94213.03;;;10.53;49.06
74921;BME280;63483;47.384;8.860;2023-05-16T10:21:57;94219.81;;;10.48;49.47
74921;BME280;63483;47.384;8.860;2023-05-16T10:25:07;94221.84;;;10.46;49.54
74921;BME280;63483;47.384;8.860;2023-05-16T10:27:34;94222.69;;;10.53;49.63
74921;BME280;63483;47.384;8.860;2023-05-16T10:30:00;94228.94;;;10.52;49.03
74921;BME280;63483;47.384;8.860;2023-05-16T10:32:26;94218.28;;;10.60;48.91
74921;BME280;63483;47.384;8.860;2023-05-16T10:34:53;94227.56;;;10.56;49.14
74921;BME280;63483;47.384;8.860;2023-05-16T10:37:20;94224.25;;;10.76;48.46
74921;BME280;63483;47.384;8.860;2023-05-16T10:39:46;94229.31;;;10.27;49.37
74921;BME280;63483;47.384;8.860;2023-05-16T10:42:12;94243.16;;;10.43;49.50
74921;BME280;63483;47.384;8.860;2023-05-16T10:44:42;94247.16;;;9.95;52.06
74921;BME280;63483;47.384;8.860;2023-05-16T10:47:07;94262.16;;;9.72;52.27
74921;BME280;63483;47.384;8.860;2023-05-16T10:49:33;94263.34;;;9.54;51.51
74921;BME280;63483;47.384;8.860;2023-05-16T10:52:09;94258.81;;;9.63;50.87
74921;BME280;63483;47.384;8.860;2023-05-16T10:57:15;94262.69;;;9.52;50.60
74921;BME280;63483;47.384;8.860;2023-05-16T10:59:46;94260.41;;;9.12;50.04
74921;BME280;63483;47.384;8.860;2023-05-16T11:02:21;94261.53;;;8.80;49.42
74921;BME280;63483;47.384;8.860;2023-05-16T11:04:48;94264.16;;;8.57;48.11
74921;BME280;63483;47.384;8.860;2023-05-16T11:07:16;94267.44;;;8.36;47.15
74921;BME280;63483;47.384;8.860;2023-05-16T11:09:43;94276.44;;;8.10;48.44
74921;BME280;63483;47.384;8.860;2023-05-16T11:12:09;94274.16;;;8.07;48.82
74921;BME280;63483;47.384;8.860;2023-05-16T11:14:39;94277.63;;;7.99;54.16
74921;BME280;63483;47.384;8.860;2023-05-16T11:17:13;94274.50;;;8.04;53.43
74921;BME280;63483;47.384;8.860;2023-05-16T11:25:03;94252.66;;;8.28;54.35
74921;BME280;63483;47.384;8.860;2023-05-16T11:30:09;94256.66;;;8.39;52.89
74921;BME280;63483;47.384;8.860;2023-05-16T11:32:37;94253.28;;;8.30;53.10
74921;BME280;63483;47.384;8.860;2023-05-16T11:35:06;94259.66;;;8.27;54.08
74921;BME280;63483;47.384;8.860;2023-05-16T11:37:33;94248.25;;;8.28;51.51
74921;BME280;63483;47.384;8.860;2023-05-16T11:40:02;94245.44;;;8.53;54.32
74921;BME280;63483;47.384;8.860;2023-05-16T11:42:33;94253.00;;;8.86;54.23
74921;BME280;63483;47.384;8.860;2023-05-16T11:45:06;94254.53;;;9.10;55.46
74921;BME280;63483;47.384;8.860;2023-05-16T11:47:34;94250.31;;;9.24;53.92
74921;BME280;63483;47.384;8.860;2023-05-16T11:50:03;94257.13;;;9.25;54.63
74921;BME280;63483;47.384;8.860;2023-05-16T11:52:29;94251.75;;;9.42;54.52
74921;BME280;63483;47.384;8.860;2023-05-16T11:54:55;94252.25;;;9.52;54.24
74921;BME280;63483;47.384;8.860;2023-05-16T11:57:25;94251.22;;;9.31;55.41
74921;BME280;63483;47.384;8.860;2023-05-16T11:59:51;94252.28;;;9.07;55.65
74921;BME280;63483;47.384;8.860;2023-05-16T12:02:17;94255.59;;;9.31;53.42
74921;BME280;63483;47.384;8.860;2023-05-16T12:04:45;94267.28;;;8.75;55.96
74921;BME280;63483;47.384;8.860;2023-05-16T12:07:11;94272.03;;;8.72;56.30
74921;BME280;63483;47.384;8.860;2023-05-16T12:09:36;94263.56;;;8.70;55.87
74921;BME280;63483;47.384;8.860;2023-05-16T12:12:04;94255.78;;;9.00;54.92
74921;BME280;63483;47.384;8.860;2023-05-16T12:14:30;94272.72;;;8.66;56.05
74921;BME280;63483;47.384;8.860;2023-05-16T12:16:56;94266.38;;;8.45;56.52
74921;BME280;63483;47.384;8.860;2023-05-16T12:19:22;94276.94;;;8.05;57.58
74921;BME280;63483;47.384;8.860;2023-05-16T12:21:51;94281.19;;;8.68;54.71
74921;BME280;63483;47.384;8.860;2023-05-16T12:24:16;94282.50;;;8.49;56.45
74921;BME280;63483;47.384;8.860;2023-05-16T12:26:42;94290.41;;;7.86;57.49
74921;BME280;63483;47.384;8.860;2023-05-16T12:29:08;94294.81;;;8.40;56.20
74921;BME280;63483;47.384;8.860;2023-05-16T12:31:37;94298.13;;;8.02;56.64
74921;BME280;63483;47.384;8.860;2023-05-16T12:34:03;94295.00;;;8.07;56.39
74921;BME280;63483;47.384;8.860;2023-05-16T12:36:32;94302.34;;;8.35;56.18
74921;BME280;63483;47.384;8.860;2023-05-16T12:39:04;94303.00;;;8.75;54.64
74921;BME280;63483;47.384;8.860;2023-05-16T12:41:30;94299.72;;;8.58;55.76
74921;BME280;63483;47.384;8.860;2023-05-16T12:44:15;94299.09;;;8.79;54.30
74921;BME280;63483;47.384;8.860;2023-05-16T12:46:49;94308.81;;;8.85;54.44
74921;BME280;63483;47.384;8.860;2023-05-16T12:49:21;94304.50;;;8.92;53.31
74921;BME280;63483;47.384;8.860;2023-05-16T12:51:52;94306.88;;;9.02;53.18
74921;BME280;63483;47.384;8.860;2023-05-16T12:54:18;94300.63;;;8.88;54.26
74921;BME280;63483;47.384;8.860;2023-05-16T12:56:43;94307.25;;;9.14;53.36
74921;BME280;63483;47.384;8.860;2023-05-16T12:59:09;94302.53;;;8.94;54.03
74921;BME280;63483;47.384;8.860;2023-05-16T13:01:36;94311.56;;;9.07;54.04
74921;BME280;63483;47.384;8.860;2023-05-16T13:04:02;94313.44;;;9.13;53.90
74921;BME280;63483;47.384;8.860;2023-05-16T13:06:28;94310.88;;;8.90;54.25
74921;BME280;63483;47.384;8.860;2023-05-16T13:08:54;94314.69;;;8.87;54.67
74921;BME280;63483;47.384;8.860;2023-05-16T13:11:19;94313.44;;;9.13;53.95
74921;BME280;63483;47.384;8.860;2023-05-16T13:13:45;94317.69;;;9.14;53.76
74921;BME280;63483;47.384;8.860;2023-05-16T13:16:10;94316.81;;;9.22;53.62
74921;BME280;63483;47.384;8.860;2023-05-16T13:18:36;94323.47;;;9.24;53.17
74921;BME280;63483;47.384;8.860;2023-05-16T13:21:02;94321.13;;;9.29;53.15
74921;BME280;63483;47.384;8.860;2023-05-16T13:23:30;94316.25;;;9.26;53.43
74921;BME280;63483;47.384;8.860;2023-05-16T13:25:55;94315.63;;;9.39;52.63
74921;BME280;63483;47.384;8.860;2023-05-16T13:28:21;94312.72;;;9.19;53.79